Time;durP1;ratioP1;P1;durP2;ratioP2;P2;SDS_P1;SDS_P2;PMS_P1;PMS_P2;Temp;Humidity;BMP_temperature;BMP_pressure;BME280_temperature;BME280_humidity;BME280_pressure;Samples;Min_cycle;Max_cycle;Signal;HPM_P1;HPM_P2
2023/05/21 16:29:59;;;;;;;;;25.67;24.33;;;;;20.17;52.16;100690.22;5150944;27;45487;-50
2023/05/21 16:32:24;;;;;;;;;24.00;24.00;;;;;20.31;52.76;100684.72;5131108;27;45366;-56
2023/05/21 16:34:49;;;;;;;;;24.67;23.33;;;;;20.45;52.75;100681.84;5119512;27;45461;-55
2023/05/21 16:37:15;;;;;;;;;29.00;26.00;;;;;20.55;54.53;100694.53;5120885;27;50083;-57
2023/05/21 16:39:40;;;;;;;;;31.33;29.67;;;;;20.63;53.14;100695.69;5123772;27;50060;-56
2023/05/21 16:42:05;;;;;;;;;30.67;29.33;;;;;20.71;54.97;100693.28;5117787;27;45557;-57
2023/05/21 16:44:31;;;;;;;;;40.67;36.33;;;;;20.80;51.53;100683.69;5125860;27;45487;-47
2023/05/21 16:46:57;;;;;;;;;22.33;21.67;;;;;20.86;51.49;100685.88;5131247;27;45463;-52
2023/05/21 16:49:22;;;;;;;;;23.33;22.33;;;;;20.92;51.05;100684.56;5122960;27;45824;-59
2023/05/21 16:51:48;;;;;;;;;28.67;26.67;;;;;20.94;52.36;100685.31;5132037;27;45694;-56
2023/05/21 16:54:13;;;;;;;;;26.33;24.33;;;;;21.01;53.42;100689.22;5130175;27;45475;-51
2023/05/21 16:56:38;;;;;;;;;21.00;21.00;;;;;21.04;50.34;100688.13;5110033;27;45531;-50
2023/05/21 16:59:04;;;;;;;;;25.33;25.33;;;;;21.07;49.78;100696.75;5117437;27;45471;-55
2023/05/21 17:01:29;;;;;;;;;28.33;25.00;;;;;21.08;50.63;100692.25;5109654;27;45622;-62
2023/05/21 17:03:55;;;;;;;;;26.33;25.00;;;;;21.07;49.71;100695.91;5112284;27;45489;-47
2023/05/21 17:06:20;;;;;;;;;26.00;24.67;;;;;21.04;49.72;100691.66;5129029;27;45418;-51
2023/05/21 17:08:46;;;;;;;;;26.67;25.33;;;;;21.01;49.64;100685.66;5133343;27;45947;-55
2023/05/21 17:11:11;;;;;;;;;25.00;24.33;;;;;21.04;50.10;100694.31;5113388;27;45733;-53
2023/05/21 17:13:37;;;;;;;;;30.00;28.67;;;;;21.07;50.54;100695.91;5126302;27;45424;-54
2023/05/21 17:16:02;;;;;;;;;43.67;37.33;;;;;21.05;50.75;100689.81;5133600;27;45515;-55
2023/05/21 17:18:28;;;;;;;;;27.67;26.00;;;;;21.03;50.73;100681.91;5133506;27;46268;-53
2023/05/21 17:20:54;;;;;;;;;31.67;30.33;;;;;21.03;50.64;100691.75;5118514;27;45419;-49
2023/05/21 17:23:20;;;;;;;;;37.33;34.33;;;;;21.06;51.30;100694.19;5122480;27;45564;-51
2023/05/21 17:25:45;;;;;;;;;38.00;33.33;;;;;21.06;51.31;100702.22;5133498;27;45638;-55
2023/05/21 17:28:11;;;;;;;;;32.67;32.00;;;;;21.04;51.11;100697.00;5112411;27;46020;-64
2023/05/21 17:30:36;;;;;;;;;29.00;29.00;;;;;;;;5116965;27;45382;-63
2023/05/21 17:33:02;;;;;;;;;34.67;30.33;;;;;21.04;50.65;100696.16;5113056;27;45581;-56
2023/05/21 17:35:28;;;;;;;;;36.00;32.00;;;;;21.03;50.75;100694.44;5104777;27;45563;-57
2023/05/21 17:37:53;;;;;;;;;30.00;29.67;;;;;21.01;50.69;100696.34;5115701;27;45479;-58
2023/05/21 17:40:20;;;;;;;;;29.33;28.67;;;;;20.99;50.72;100709.88;5102810;27;45582;-56
2023/05/21 17:42:46;;;;;;;;;29.33;29.33;;;;;20.97;50.97;100711.81;5090517;27;45572;-55
2023/05/21 17:45:11;;;;;;;;;33.67;32.67;;;;;20.94;50.78;100702.19;5104598;27;45531;-56
2023/05/21 17:47:36;;;;;;;;;27.00;26.33;;;;;20.92;50.83;100708.63;5119065;27;45546;-57
2023/05/21 17:50:02;;;;;;;;;42.67;36.67;;;;;20.87;51.30;100713.47;5113394;27;45473;-54
2023/05/21 17:52:27;;;;;;;;;29.00;29.00;;;;;20.87;51.87;100719.66;5118880;27;45375;-53
2023/05/21 17:54:52;;;;;;;;;29.00;29.00;;;;;20.87;51.69;100722.34;5118909;27;45440;-54
2023/05/21 17:57:19;;;;;;;;;21.00;19.00;;;;;20.85;52.19;100716.28;5118629;27;45459;-55
2023/05/21 17:59:44;;;;;;;;;33.67;30.67;;;;;20.84;52.51;100722.56;5101500;27;45433;-54
2023/05/21 18:02:10;;;;;;;;;41.67;36.00;;;;;20.83;52.25;100712.88;5097647;27;45370;-54
2023/05/21 18:04:36;;;;;;;;;34.67;31.33;;;;;20.84;52.37;100717.22;5112362;27;45402;-53
2023/05/21 18:07:01;;;;;;;;;27.67;27.33;;;;;20.83;52.68;100725.38;5094516;27;49105;-51
2023/05/21 18:09:26;;;;;;;;;39.67;34.33;;;;;20.78;52.55;100728.41;5068882;27;45462;-62
2023/05/21 18:11:52;;;;;;;;;32.00;29.33;;;;;20.79;52.11;100729.25;5093227;27;45490;-57
2023/05/21 18:14:17;;;;;;;;;34.00;32.00;;;;;20.78;52.51;100725.72;5101611;27;45593;-56
2023/05/21 18:16:43;;;;;;;;;33.33;30.67;;;;;20.77;52.59;100729.38;5118423;27;46325;-64
2023/05/21 18:19:08;;;;;;;;;31.67;30.33;;;;;20.76;52.56;100730.31;5118478;27;45511;-61
2023/05/21 18:21:34;;;;;;;;;34.00;32.00;;;;;20.74;52.48;100740.31;5117878;27;45468;-61
2023/05/21 18:24:00;;;;;;;;;29.33;29.33;;;;;20.71;52.43;100735.16;5111892;27;45562;-59
2023/05/21 18:26:25;;;;;;;;;35.67;32.33;;;;;20.67;51.82;100742.56;5118589;27;45510;-64
2023/05/21 18:28:51;;;;;;;;;43.67;35.67;;;;;20.66;52.33;100740.88;5103136;27;45551;-59
2023/05/21 18:31:16;;;;;;;;;37.33;34.67;;;;;20.63;52.88;100735.78;5110727;27;45521;-60
2023/05/21 18:33:41;;;;;;;;;36.00;33.67;;;;;20.63;53.23;100742.91;5101202;27;45425;-61
2023/05/21 18:36:07;;;;;;;;;35.67;33.67;;;;;20.60;53.60;100738.66;5103063;27;45476;-59
2023/05/21 18:38:32;;;;;;;;;32.67;31.67;;;;;20.59;53.54;100742.31;5116004;27;45348;-59
2023/05/21 18:40:58;;;;;;;;;39.33;35.00;;;;;20.57;53.87;100744.22;5109273;27;45446;-58
2023/05/21 18:43:24;;;;;;;;;34.33;32.33;;;;;20.55;53.83;100747.97;5107819;27;45643;-61
2023/05/21 18:45:49;;;;;;;;;39.67;34.00;;;;;20.49;54.32;100743.91;5118199;27;45540;-58
2023/05/21 18:48:15;;;;;;;;;34.33;30.33;;;;;20.47;54.82;100749.41;5114789;27;45425;-58
2023/05/21 18:50:40;;;;;;;;;43.67;36.67;;;;;20.45;54.48;100748.66;5117484;27;45314;-58
2023/05/21 18:53:05;;;;;;;;;40.00;34.67;;;;;20.43;54.43;100752.41;5085138;27;45498;-53
2023/05/21 18:55:31;;;;;;;;;35.00;33.00;;;;;20.40;54.89;100758.81;5090969;27;46122;-49
2023/05/21 18:57:56;;;;;;;;;40.00;34.33;;;;;20.36;54.99;100756.47;5115427;27;45442;-52
2023/05/21 19:00:23;;;;;;;;;34.00;32.33;;;;;20.38;55.20;100760.75;5107581;27;50114;-55
2023/05/21 19:02:48;;;;;;;;;40.67;33.67;;;;;20.33;54.72;100762.91;5105903;27;45479;-54
2023/05/21 19:05:14;;;;;;;;;36.33;33.67;;;;;20.31;54.93;100764.84;5114484;27;45455;-50
2023/05/21 19:07:40;;;;;;;;;36.33;33.67;;;;;20.28;55.34;100754.38;5097411;27;45486;-51
2023/05/21 19:10:06;;;;;;;;;37.00;34.67;;;;;20.24;55.19;100756.44;5097071;27;45446;-50
2023/05/21 19:12:32;;;;;;;;;41.33;34.67;;;;;20.27;55.43;100769.56;5093872;27;45623;-53
2023/05/21 19:14:58;;;;;;;;;38.00;34.00;;;;;20.25;55.58;100762.63;5106982;27;45500;-50
2023/05/21 19:17:24;;;;;;;;;31.33;29.33;;;;;20.27;55.48;100777.56;5106564;27;45536;-49
2023/05/21 19:19:54;;;;;;;;;39.67;34.67;;;;;20.21;55.74;100769.16;5117744;27;45368;-56
2023/05/21 19:22:25;;;;;;;;;40.67;34.00;;;;;20.23;55.87;100776.09;5117678;27;45441;-50
2023/05/21 19:24:51;;;;;;;;;39.67;34.67;;;;;20.17;55.92;100768.50;5113664;27;45558;-52
2023/05/21 19:27:17;;;;;;;;;35.33;32.67;;;;;20.16;56.92;100773.97;5094529;27;45370;-52
2023/05/21 19:29:43;;;;;;;;;28.00;26.00;;;;;20.21;56.91;100769.16;5077962;27;45541;-56
2023/05/21 19:32:13;;;;;;;;;31.67;31.33;;;;;20.19;56.27;100779.09;5097346;27;45489;-56
2023/05/21 19:34:39;;;;;;;;;38.67;33.00;;;;;20.15;56.75;100773.13;5096909;27;45370;-54
2023/05/21 19:37:04;;;;;;;;;39.00;35.33;;;;;20.15;56.88;100785.59;5096430;27;45358;-52
2023/05/21 19:39:37;;;;;;;;;33.33;31.33;;;;;20.06;56.79;100771.97;5097343;27;45458;-54
2023/05/21 19:42:02;;;;;;;;;34.67;32.00;;;;;20.11;56.98;100779.66;5097326;27;45343;-55
2023/05/21 19:44:28;;;;;;;;;34.67;31.33;;;;;20.08;57.36;100787.88;5096893;27;45526;-52
2023/05/21 19:46:53;;;;;;;;;38.33;34.33;;;;;20.04;57.51;100792.59;5093124;27;46407;-56
2023/05/21 19:49:19;;;;;;;;;40.00;34.67;;;;;19.98;57.59;100785.00;5095735;27;45464;-59
2023/05/21 19:51:44;;;;;;;;;34.67;32.67;;;;;19.93;57.40;100789.81;5090772;27;45601;-66
2023/05/21 19:54:09;;;;;;;;;33.33;31.67;;;;;19.94;57.89;100798.72;5083307;27;45549;-60
2023/05/21 19:56:35;;;;;;;;;40.33;34.00;;;;;19.91;58.14;100793.56;5083655;27;45531;-60
2023/05/21 19:59:00;;;;;;;;;38.00;33.33;;;;;19.88;58.02;100804.47;5084244;27;45513;-56
2023/05/21 20:01:27;;;;;;;;;32.00;31.33;;;;;19.83;57.86;100800.31;5090078;27;45618;-51
2023/05/21 20:03:53;;;;;;;;;39.00;34.67;;;;;19.80;58.37;100803.22;5095815;27;45582;-56
2023/05/21 20:06:19;;;;;;;;;39.00;34.00;;;;;19.79;58.49;100801.50;5096574;27;45443;-52
2023/05/21 20:08:45;;;;;;;;;41.33;35.00;;;;;19.69;58.64;100796.91;5090094;27;45477;-54
2023/05/21 20:11:10;;;;;;;;;47.67;39.67;;;;;19.71;58.86;100817.19;5089855;27;45442;-54
2023/05/21 20:13:35;;;;;;;;;46.67;37.67;;;;;19.71;58.32;100816.34;5096178;27;48870;-51
2023/05/21 20:16:01;;;;;;;;;44.67;38.33;;;;;19.70;59.15;100814.66;5083016;27;45500;-56
2023/05/21 20:18:26;;;;;;;;;39.00;35.33;;;;;19.69;58.45;100820.94;5088843;27;45501;-55
2023/05/21 20:20:53;;;;;;;;;37.00;34.00;;;;;19.64;59.18;100819.41;5080878;27;45458;-55
2023/05/21 20:23:19;;;;;;;;;46.33;39.00;;;;;19.63;58.92;100823.03;5091217;27;45459;-52
2023/05/21 20:25:44;;;;;;;;;40.67;35.00;;;;;19.63;59.21;100822.19;5094777;27;45473;-52
2023/05/21 20:28:10;;;;;;;;;47.00;40.00;;;;;19.64;59.20;100829.25;5075755;28;45909;-55
2023/05/21 20:30:52;;;;;;;;;40.00;34.00;;;;;19.63;59.27;100830.19;5087824;27;45405;-58
2023/05/21 20:33:18;;;;;;;;;38.33;35.67;;;;;19.63;59.53;100832.84;5095488;27;46281;-49
2023/05/21 20:35:44;;;;;;;;;40.00;36.67;;;;;19.63;59.33;100831.03;5096342;27;45473;-56
2023/05/21 20:38:11;;;;;;;;;39.67;36.00;;;;;19.64;59.12;100831.91;5096546;27;45492;-54
2023/05/21 20:40:36;;;;;;;;;39.67;35.33;;;;;19.61;58.92;100837.44;5091271;27;45635;-55
2023/05/21 20:43:01;;;;;;;;;38.33;34.00;;;;;19.58;59.35;100835.84;5092937;27;58547;-53
2023/05/21 20:45:28;;;;;;;;;39.33;34.33;;;;;19.56;58.94;100834.25;5081796;27;50801;-53
2023/05/21 20:47:55;;;;;;;;;33.67;32.67;;;;;19.55;59.31;100844.06;5086296;27;45392;-57
2023/05/21 20:50:24;;;;;;;;;47.67;40.00;;;;;19.55;58.89;100845.88;5095942;27;45560;-52
2023/05/21 20:52:50;;;;;;;;;38.33;34.67;;;;;19.53;58.82;100837.13;5095880;27;45374;-55
2023/05/21 20:55:16;;;;;;;;;37.33;35.00;;;;;19.48;58.98;100832.13;5095149;27;45501;-55
2023/05/21 20:57:41;;;;;;;;;38.00;34.67;;;;;19.45;58.97;100835.00;5084373;27;45495;-55
2023/05/21 21:00:09;;;;;;;;;35.67;33.67;;;;;19.44;58.87;100835.94;5095368;27;45382;-54
2023/05/21 21:02:37;;;;;;;;;53.00;45.33;;;;;19.43;58.92;100831.56;5089718;27;45449;-54
2023/05/21 21:05:02;;;;;;;;;36.00;34.33;;;;;19.41;59.11;100837.00;5075928;28;45545;-54
2023/05/21 21:07:30;;;;;;;;;33.00;32.67;;;;;19.37;59.17;100843.53;5075442;28;45399;-56
2023/05/21 21:09:56;;;;;;;;;40.33;35.33;;;;;19.37;59.80;100839.97;5089657;27;45533;-56
2023/05/21 21:12:22;;;;;;;;;34.33;33.00;;;;;19.31;59.49;100830.59;5093527;27;46076;-54
2023/05/21 21:14:47;;;;;;;;;39.33;32.67;;;;;19.29;59.37;100829.84;5096714;27;45465;-58
2023/05/21 21:17:12;;;;;;;;;33.67;33.00;;;;;19.33;59.67;100828.69;5099581;27;46058;-56
2023/05/21 21:19:38;;;;;;;;;33.00;29.67;;;;;19.32;59.65;100828.78;5099333;27;45422;-56
2023/05/21 21:22:03;;;;;;;;;32.33;29.33;;;;;19.31;59.79;100832.41;5085029;27;45521;-53
2023/05/21 21:24:29;;;;;;;;;35.00;34.00;;;;;19.28;59.40;100843.28;5095696;27;45399;-56
2023/05/21 21:26:54;;;;;;;;;29.00;29.00;;;;;19.30;59.71;100833.38;5099132;27;45779;-54
2023/05/21 21:29:19;;;;;;;;;27.00;27.00;;;;;19.29;59.77;100831.66;5098086;27;45613;-52
2023/05/21 21:31:46;;;;;;;;;35.00;34.00;;;;;19.29;59.93;100832.53;5097556;27;58867;-51
2023/05/21 21:34:12;;;;;;;;;28.67;28.67;;;;;19.25;59.51;100830.16;5098202;27;45525;-57
2023/05/21 21:36:37;;;;;;;;;31.67;31.67;;;;;19.23;59.07;100845.41;5098198;27;45416;-57
2023/05/21 21:39:02;;;;;;;;;34.67;33.00;;;;;19.14;58.70;100836.22;5098140;27;45581;-52
2023/05/21 21:41:28;;;;;;;;;32.33;29.33;;;;;19.09;58.54;100839.19;5099079;27;46050;-53
2023/05/21 21:43:53;;;;;;;;;34.00;31.00;;;;;19.06;58.52;100838.56;5098968;27;45347;-51
2023/05/21 21:46:19;;;;;;;;;27.33;26.00;;;;;19.02;59.07;100832.59;5098337;27;45426;-55
2023/05/21 21:48:44;;;;;;;;;25.67;25.67;;;;;18.98;58.56;100831.91;5097946;27;45437;-54
2023/05/21 21:51:10;;;;;;;;;31.33;30.00;;;;;18.94;58.93;100835.75;5098501;27;45451;-54
2023/05/21 21:53:35;;;;;;;;;28.33;26.00;;;;;18.90;58.62;100834.22;5098559;27;45388;-55
2023/05/21 21:56:01;;;;;;;;;25.33;24.67;;;;;18.86;58.40;100832.75;5098861;27;45424;-52
2023/05/21 21:58:26;;;;;;;;;27.33;27.33;;;;;18.84;58.22;100836.47;5098401;27;45369;-57
2023/05/21 22:00:52;;;;;;;;;22.33;21.00;;;;;18.80;57.72;100832.28;5098013;27;45383;-54
2023/05/21 22:03:17;;;;;;;;;18.00;18.00;;;;;18.74;58.24;100838.84;5098423;27;45397;-56
2023/05/21 22:05:43;;;;;;;;;25.33;21.00;;;;;18.71;58.12;100829.22;5076399;28;45528;-52
2023/05/21 22:08:09;;;;;;;;;25.67;23.00;;;;;18.76;57.86;100839.63;5078241;28;45571;-56
2023/05/21 22:10:36;;;;;;;;;21.33;17.67;;;;;18.77;57.58;100846.66;5080112;27;48072;-55
2023/05/21 22:13:03;;;;;;;;;21.33;21.33;;;;;18.70;58.04;100840.84;5098257;27;45495;-54
2023/05/21 22:15:30;;;;;;;;;7.00;5.67;;;;;18.74;58.23;100850.38;5075629;27;45382;-56
2023/05/21 22:17:55;;;;;;;;;22.00;21.00;;;;;18.72;58.30;100843.41;5077973;28;45513;-58
2023/05/21 22:20:24;;;;;;;;;21.00;20.00;;;;;18.73;57.97;100834.47;5077689;28;45374;-53
2023/05/21 22:22:50;;;;;;;;;28.00;26.00;;;;;18.71;58.11;100845.22;5080764;27;45435;-56
2023/05/21 22:25:16;;;;;;;;;22.33;22.33;;;;;18.63;58.04;100830.69;5097619;27;45422;-53
2023/05/21 22:27:42;;;;;;;;;22.33;20.67;;;;;18.66;57.93;100842.00;5097865;27;45547;-58
2023/05/21 22:30:08;;;;;;;;;19.00;19.00;;;;;18.66;57.54;100841.16;5079261;27;47167;-57
2023/05/21 22:32:33;;;;;;;;;20.00;19.00;;;;;18.64;57.55;100837.72;5098344;27;45415;-53
2023/05/21 22:34:58;;;;;;;;;16.00;16.00;;;;;18.60;57.74;100829.09;5097222;27;52432;-56
2023/05/21 22:37:24;;;;;;;;;26.00;21.67;;;;;18.65;57.54;100839.44;5098138;27;45734;-53
2023/05/21 22:39:51;;;;;;;;;20.00;18.33;;;;;18.60;57.30;100845.06;5098117;27;46205;-53
2023/05/21 22:42:17;;;;;;;;;16.33;15.67;;;;;18.55;57.27;100845.34;5097900;27;45469;-55
2023/05/21 22:44:42;;;;;;;;;20.67;20.00;;;;;18.53;57.37;100836.59;5098210;27;45409;-59
2023/05/21 22:47:08;;;;;;;;;22.33;22.33;;;;;18.53;56.94;100844.59;5097468;27;45607;-56
2023/05/21 22:49:34;;;;;;;;;14.67;14.67;;;;;18.54;57.14;100842.81;5097010;27;46195;-51
2023/05/21 22:52:03;;;;;;;;;22.33;20.67;;;;;18.56;57.24;100851.53;5097938;27;45457;-54
2023/05/21 22:54:32;;;;;;;;;22.67;22.00;;;;;18.58;57.49;100851.44;5097989;27;45417;-56
2023/05/21 22:56:58;;;;;;;;;20.67;19.00;;;;;18.56;57.39;100848.88;5096458;27;45568;-53
2023/05/21 22:59:23;;;;;;;;;21.33;20.33;;;;;18.55;56.95;100857.84;5097051;27;46103;-55
2023/05/21 23:01:49;;;;;;;;;17.33;17.33;;;;;18.52;57.49;100850.03;5097069;27;45406;-52
2023/05/21 23:04:14;;;;;;;;;19.00;17.00;;;;;18.53;57.43;100852.59;5080940;27;45528;-53
2023/05/21 23:06:41;;;;;;;;;18.00;15.00;;;;;18.53;57.62;100849.94;5077469;28;45557;-54
2023/05/21 23:09:06;;;;;;;;;15.00;15.00;;;;;18.53;57.39;100847.25;5077373;28;46396;-55
2023/05/21 23:11:31;;;;;;;;;17.33;16.00;;;;;18.47;57.23;100846.81;5076850;27;45441;-56
2023/05/21 23:13:57;;;;;;;;;20.33;17.33;;;;;18.44;57.36;100841.69;5091726;27;45443;-56
2023/05/21 23:16:22;;;;;;;;;15.67;15.33;;;;;18.39;57.12;100847.31;5097556;27;45547;-57
2023/05/21 23:18:48;;;;;;;;;19.67;16.33;;;;;18.35;57.31;100845.81;5097474;27;45380;-54
2023/05/21 23:21:14;;;;;;;;;14.67;13.67;;;;;18.30;57.18;100846.09;5097369;27;45463;-56
2023/05/21 23:23:40;;;;;;;;;19.33;19.33;;;;;18.31;56.82;100846.94;5084802;27;45411;-54
2023/05/21 23:26:05;;;;;;;;;23.67;20.33;;;;;18.28;57.02;100852.47;5091834;27;45417;-56
2023/05/21 23:28:31;;;;;;;;;15.67;13.67;;;;;18.24;56.94;100842.94;5081977;27;45366;-51
2023/05/21 23:30:56;;;;;;;;;19.67;16.33;;;;;18.24;57.05;100843.81;5076940;28;45478;-55
2023/05/21 23:33:21;;;;;;;;;22.00;16.67;;;;;18.23;56.67;100847.44;5076994;27;45335;-56
2023/05/21 23:35:47;;;;;;;;;18.00;18.00;;;;;18.21;56.82;100853.78;5071636;27;45581;-57
2023/05/21 23:38:12;;;;;;;;;17.33;14.67;;;;;18.17;56.90;100854.97;5096149;27;45385;-56
2023/05/21 23:40:38;;;;;;;;;16.00;15.67;;;;;18.14;56.68;100849.84;5097300;27;45410;-52
2023/05/21 23:43:03;;;;;;;;;17.00;15.33;;;;;18.11;57.00;100845.56;5097627;27;45465;-51
2023/05/21 23:45:30;;;;;;;;;18.00;17.33;;;;;18.12;56.73;100854.38;5097177;27;45520;-53
2023/05/21 23:47:55;;;;;;;;;18.33;18.33;;;;;18.09;56.83;100850.13;5096483;27;45482;-53
2023/05/21 23:50:22;;;;;;;;;17.67;16.00;;;;;18.06;56.94;100847.66;5096922;27;45433;-53
2023/05/21 23:52:47;;;;;;;;;20.33;17.67;;;;;18.06;56.89;100855.63;5095569;27;45523;-54
2023/05/21 23:55:13;;;;;;;;;18.00;16.33;;;;;18.06;56.91;100842.31;5096214;27;45442;-53
2023/05/21 23:57:39;;;;;;;;;19.67;18.00;;;;;18.07;56.50;100838.69;5079979;27;45389;-51
